sensor_id;sensor_type;location;lat;lon;timestamp;pressure;altitude;pressure_sealevel;temperature;humidity
6090;BME280;3073;42.660;23.316;2023-05-20T00:00:13;94813.88;;;21.96;64.58
6090;BME280;3073;42.660;23.316;2023-05-20T00:02:43;94813.75;;;22.01;63.83
6090;BME280;3073;42.660;23.316;2023-05-20T00:05:10;94816.22;;;22.06;63.87
6090;BME280;3073;42.660;23.316;2023-05-20T00:07:37;94808.38;;;21.98;64.16
6090;BME280;3073;42.660;23.316;2023-05-20T00:10:04;94810.22;;;21.97;64.19
6090;BME280;3073;42.660;23.316;2023-05-20T00:12:33;94814.13;;;22.17;63.32
6090;BME280;3073;42.660;23.316;2023-05-20T00:15:06;94812.03;;;21.97;64.23
6090;BME280;3073;42.660;23.316;2023-05-20T00:17:33;94811.91;;;22.02;64.51
6090;BME280;3073;42.660;23.316;2023-05-20T00:20:03;94816.06;;;21.81;65.60
6090;BME280;3073;42.660;23.316;2023-05-20T00:22:31;94815.19;;;21.05;68.45
6090;BME280;3073;42.660;23.316;2023-05-20T00:24:58;94814.09;;;20.97;66.89
6090;BME280;3073;42.660;23.316;2023-05-20T00:27:24;94815.19;;;21.05;67.53
6090;BME280;3073;42.660;23.316;2023-05-20T00:29:51;94816.00;;;20.92;67.50
6090;BME280;3073;42.660;23.316;2023-05-20T00:32:19;94813.88;;;20.58;68.56
6090;BME280;3073;42.660;23.316;2023-05-20T00:34:54;94804.34;;;20.67;68.68
6090;BME280;3073;42.660;23.316;2023-05-20T00:37:21;94803.69;;;20.21;70.66
6090;BME280;3073;42.660;23.316;2023-05-20T00:39:48;94800.47;;;19.69;73.24
6090;BME280;3073;42.660;23.316;2023-05-20T00:42:19;94791.31;;;20.04;72.79
6090;BME280;3073;42.660;23.316;2023-05-20T00:44:46;94791.28;;;20.59;70.25
6090;BME280;3073;42.660;23.316;2023-05-20T00:47:13;94788.88;;;21.12;68.06
6090;BME280;3073;42.660;23.316;2023-05-20T00:49:42;94787.84;;;21.35;66.07
6090;BME280;3073;42.660;23.316;2023-05-20T00:52:09;94785.03;;;21.09;66.75
6090;BME280;3073;42.660;23.316;2023-05-20T00:54:37;94787.00;;;20.90;67.39
6090;BME280;3073;42.660;23.316;2023-05-20T00:57:05;94789.19;;;21.32;65.96
6090;BME280;3073;42.660;23.316;2023-05-20T00:59:33;94778.50;;;21.34;65.05
6090;BME280;3073;42.660;23.316;2023-05-20T01:02:01;94781.63;;;21.44;65.03
6090;BME280;3073;42.660;23.316;2023-05-20T01:04:28;94769.19;;;21.11;65.49
6090;BME280;3073;42.660;23.316;2023-05-20T01:06:58;94776.78;;;21.29;65.77
6090;BME280;3073;42.660;23.316;2023-05-20T01:09:26;94787.97;;;20.94;65.29
6090;BME280;3073;42.660;23.316;2023-05-20T01:12:00;94776.38;;;21.14;65.05
6090;BME280;3073;42.660;23.316;2023-05-20T01:14:31;94781.94;;;21.21;64.79
6090;BME280;3073;42.660;23.316;2023-05-20T01:17:01;94790.13;;;21.36;64.19
6090;BME280;3073;42.660;23.316;2023-05-20T01:19:37;94792.50;;;21.24;64.20
6090;BME280;3073;42.660;23.316;2023-05-20T01:22:06;94797.44;;;20.98;65.21
6090;BME280;3073;42.660;23.316;2023-05-20T01:24:39;94799.03;;;21.22;64.91
6090;BME280;3073;42.660;23.316;2023-05-20T01:27:06;94796.03;;;21.28;64.70
6090;BME280;3073;42.660;23.316;2023-05-20T01:29:35;94794.09;;;20.08;68.44
6090;BME280;3073;42.660;23.316;2023-05-20T01:32:04;94792.66;;;20.56;67.59
6090;BME280;3073;42.660;23.316;2023-05-20T01:34:33;94791.66;;;20.79;67.01
6090;BME280;3073;42.660;23.316;2023-05-20T01:37:02;94795.63;;;19.81;69.67
6090;BME280;3073;42.660;23.316;2023-05-20T01:39:31;94783.22;;;19.65;70.95
6090;BME280;3073;42.660;23.316;2023-05-20T01:42:01;94783.41;;;20.77;67.06
6090;BME280;3073;42.660;23.316;2023-05-20T01:44:29;94783.03;;;20.70;67.47
6090;BME280;3073;42.660;23.316;2023-05-20T01:46:56;94788.81;;;20.67;67.70
6090;BME280;3073;42.660;23.316;2023-05-20T01:49:23;94779.34;;;20.85;66.84
6090;BME280;3073;42.660;23.316;2023-05-20T01:51:50;94774.56;;;21.14;65.57
6090;BME280;3073;42.660;23.316;2023-05-20T01:54:17;94775.56;;;21.27;64.92
6090;BME280;3073;42.660;23.316;2023-05-20T01:56:44;94784.34;;;21.17;66.27
6090;BME280;3073;42.660;23.316;2023-05-20T01:59:13;94785.31;;;21.08;67.82
6090;BME280;3073;42.660;23.316;2023-05-20T02:01:39;94782.78;;;20.94;67.30
6090;BME280;3073;42.660;23.316;2023-05-20T02:04:06;94774.03;;;21.26;66.66
6090;BME280;3073;42.660;23.316;2023-05-20T02:06:33;94777.22;;;21.23;66.39
6090;BME280;3073;42.660;23.316;2023-05-20T02:09:00;94780.41;;;21.20;66.67
6090;BME280;3073;42.660;23.316;2023-05-20T02:11:27;94772.34;;;21.08;67.73
6090;BME280;3073;42.660;23.316;2023-05-20T02:13:54;94769.91;;;21.25;66.75
6090;BME280;3073;42.660;23.316;2023-05-20T02:16:23;94768.38;;;21.24;65.43
6090;BME280;3073;42.660;23.316;2023-05-20T02:18:50;94769.06;;;21.16;65.42
6090;BME280;3073;42.660;23.316;2023-05-20T02:21:17;94776.41;;;21.00;66.19
6090;BME280;3073;42.660;23.316;2023-05-20T02:23:44;94781.28;;;20.79;66.21
6090;BME280;3073;42.660;23.316;2023-05-20T02:26:11;94777.44;;;20.77;66.01
6090;BME280;3073;42.660;23.316;2023-05-20T02:28:38;94772.19;;;20.68;66.77
6090;BME280;3073;42.660;23.316;2023-05-20T02:31:10;94771.72;;;20.25;68.46
6090;BME280;3073;42.660;23.316;2023-05-20T02:33:39;94765.22;;;20.41;67.57
6090;BME280;3073;42.660;23.316;2023-05-20T02:36:07;94772.44;;;20.44;67.33
6090;BME280;3073;42.660;23.316;2023-05-20T02:38:34;94769.34;;;20.42;66.62
6090;BME280;3073;42.660;23.316;2023-05-20T02:41:02;94770.78;;;20.35;67.92
6090;BME280;3073;42.660;23.316;2023-05-20T02:43:29;94765.19;;;20.55;66.38
6090;BME280;3073;42.660;23.316;2023-05-20T02:45:57;94762.91;;;20.53;66.18
6090;BME280;3073;42.660;23.316;2023-05-20T02:48:24;94763.00;;;20.35;66.90
6090;BME280;3073;42.660;23.316;2023-05-20T02:50:52;94766.31;;;20.63;66.35
6090;BME280;3073;42.660;23.316;2023-05-20T02:53:19;94762.50;;;20.60;65.89
6090;BME280;3073;42.660;23.316;2023-05-20T02:55:46;94765.78;;;20.25;68.10
6090;BME280;3073;42.660;23.316;2023-05-20T02:58:13;94767.72;;;20.33;68.06
6090;BME280;3073;42.660;23.316;2023-05-20T03:00:40;94771.53;;;20.49;66.47
6090;BME280;3073;42.660;23.316;2023-05-20T03:03:07;94769.53;;;20.32;66.84
6090;BME280;3073;42.660;23.316;2023-05-20T03:05:35;94771.28;;;20.37;67.03
6090;BME280;3073;42.660;23.316;2023-05-20T03:08:08;94777.41;;;20.00;67.82
6090;BME280;3073;42.660;23.316;2023-05-20T03:10:35;94775.97;;;19.94;67.54
6090;BME280;3073;42.660;23.316;2023-05-20T03:13:03;94780.03;;;19.35;70.83
6090;BME280;3073;42.660;23.316;2023-05-20T03:15:33;94780.25;;;19.71;69.60
6090;BME280;3073;42.660;23.316;2023-05-20T03:18:00;94779.75;;;19.69;69.60
6090;BME280;3073;42.660;23.316;2023-05-20T03:20:27;94783.25;;;20.05;68.26
6090;BME280;3073;42.660;23.316;2023-05-20T03:22:54;94792.22;;;20.27;67.04
6090;BME280;3073;42.660;23.316;2023-05-20T03:25:23;94790.38;;;20.41;66.17
6090;BME280;3073;42.660;23.316;2023-05-20T03:27:50;94790.38;;;20.41;65.68
6090;BME280;3073;42.660;23.316;2023-05-20T03:30:17;94795.00;;;20.30;66.42
6090;BME280;3073;42.660;23.316;2023-05-20T03:32:43;94793.56;;;20.38;66.36
6090;BME280;3073;42.660;23.316;2023-05-20T03:35:10;94800.13;;;20.03;67.42
6090;BME280;3073;42.660;23.316;2023-05-20T03:37:37;94795.91;;;20.07;67.15
6090;BME280;3073;42.660;23.316;2023-05-20T03:40:05;94796.72;;;19.75;68.98
6090;BME280;3073;42.660;23.316;2023-05-20T03:42:36;94799.28;;;20.21;68.08
6090;BME280;3073;42.660;23.316;2023-05-20T03:45:03;94797.03;;;19.74;69.10
6090;BME280;3073;42.660;23.316;2023-05-20T03:47:31;94805.63;;;19.56;70.27
6090;BME280;3073;42.660;23.316;2023-05-20T03:49:58;94807.63;;;20.04;69.40
6090;BME280;3073;42.660;23.316;2023-05-20T03:52:25;94812.34;;;20.43;67.72
6090;BME280;3073;42.660;23.316;2023-05-20T03:54:52;94803.81;;;20.43;67.53
6090;BME280;3073;42.660;23.316;2023-05-20T03:57:19;94809.00;;;20.43;67.25
6090;BME280;3073;42.660;23.316;2023-05-20T03:59:47;94805.59;;;20.70;67.32
6090;BME280;3073;42.660;23.316;2023-05-20T04:02:14;94805.38;;;20.80;67.20
6090;BME280;3073;42.660;23.316;2023-05-20T04:04:41;94811.09;;;21.04;66.46
6090;BME280;3073;42.660;23.316;2023-05-20T04:07:07;94812.16;;;21.03;66.47
6090;BME280;3073;42.660;23.316;2023-05-20T04:09:34;94819.28;;;21.11;66.02
6090;BME280;3073;42.660;23.316;2023-05-20T04:12:01;94817.69;;;21.46;65.47
6090;BME280;3073;42.660;23.316;2023-05-20T04:14:28;94826.81;;;20.72;67.46
6090;BME280;3073;42.660;23.316;2023-05-20T04:16:59;94824.28;;;21.30;66.87
6090;BME280;3073;42.660;23.316;2023-05-20T04:19:26;94830.50;;;21.06;65.83
6090;BME280;3073;42.660;23.316;2023-05-20T04:21:55;94824.28;;;21.52;65.97
6090;BME280;3073;42.660;23.316;2023-05-20T04:24:21;94826.28;;;21.77;64.70
6090;BME280;3073;42.660;23.316;2023-05-20T04:26:49;94825.81;;;22.37;62.67
6090;BME280;3073;42.660;23.316;2023-05-20T04:29:17;94816.81;;;22.03;61.76
6090;BME280;3073;42.660;23.316;2023-05-20T04:31:44;94824.69;;;22.21;61.86
6090;BME280;3073;42.660;23.316;2023-05-20T04:34:15;94815.59;;;22.10;61.55
6090;BME280;3073;42.660;23.316;2023-05-20T04:36:44;94813.69;;;22.24;60.60
6090;BME280;3073;42.660;23.316;2023-05-20T04:39:11;94819.47;;;22.21;61.76
6090;BME280;3073;42.660;23.316;2023-05-20T04:41:39;94817.28;;;22.62;60.75
6090;BME280;3073;42.660;23.316;2023-05-20T04:44:06;94824.63;;;22.60;60.49
6090;BME280;3073;42.660;23.316;2023-05-20T04:46:33;94827.91;;;22.74;60.17
6090;BME280;3073;42.660;23.316;2023-05-20T04:49:00;94830.53;;;23.00;59.78
6090;BME280;3073;42.660;23.316;2023-05-20T04:51:30;94834.72;;;22.44;61.13
6090;BME280;3073;42.660;23.316;2023-05-20T04:53:59;94834.53;;;23.06;59.90
6090;BME280;3073;42.660;23.316;2023-05-20T04:56:26;94829.78;;;23.17;59.78
6090;BME280;3073;42.660;23.316;2023-05-20T04:58:53;94833.31;;;23.46;58.83
6090;BME280;3073;42.660;23.316;2023-05-20T05:01:20;94827.19;;;23.34;58.55
6090;BME280;3073;42.660;23.316;2023-05-20T05:03:47;94832.97;;;23.65;58.17
6090;BME280;3073;42.660;23.316;2023-05-20T05:06:14;94832.69;;;23.67;57.55
6090;BME280;3073;42.660;23.316;2023-05-20T05:08:42;94829.63;;;23.65;57.02
6090;BME280;3073;42.660;23.316;2023-05-20T05:11:09;94827.81;;;23.14;59.81
6090;BME280;3073;42.660;23.316;2023-05-20T05:13:36;94836.22;;;23.62;58.66
6090;BME280;3073;42.660;23.316;2023-05-20T05:16:03;94839.06;;;23.95;58.24
6090;BME280;3073;42.660;23.316;2023-05-20T05:18:29;94847.56;;;24.30;57.92
6090;BME280;3073;42.660;23.316;2023-05-20T05:21:00;94838.41;;;24.53;57.32
6090;BME280;3073;42.660;23.316;2023-05-20T05:23:27;94830.44;;;24.03;56.52
6090;BME280;3073;42.660;23.316;2023-05-20T05:25:56;94833.09;;;24.41;56.35
6090;BME280;3073;42.660;23.316;2023-05-20T05:28:23;94834.84;;;24.57;56.86
6090;BME280;3073;42.660;23.316;2023-05-20T05:30:51;94835.00;;;24.90;56.39
6090;BME280;3073;42.660;23.316;2023-05-20T05:33:19;94826.84;;;24.92;56.02
6090;BME280;3073;42.660;23.316;2023-05-20T05:35:46;94820.66;;;24.96;55.95
6090;BME280;3073;42.660;23.316;2023-05-20T05:38:13;94816.41;;;24.63;55.06
6090;BME280;3073;42.660;23.316;2023-05-20T05:40:40;94813.84;;;24.54;55.06
6090;BME280;3073;42.660;23.316;2023-05-20T05:43:08;94823.31;;;24.29;55.47
6090;BME280;3073;42.660;23.316;2023-05-20T05:45:35;94824.59;;;24.82;55.01
6090;BME280;3073;42.660;23.316;2023-05-20T05:48:02;94823.72;;;24.69;54.31
6090;BME280;3073;42.660;23.316;2023-05-20T05:50:29;94824.56;;;24.90;53.63
6090;BME280;3073;42.660;23.316;2023-05-20T05:52:56;94820.16;;;25.24;53.23
6090;BME280;3073;42.660;23.316;2023-05-20T05:55:22;94817.47;;;25.32;52.20
6090;BME280;3073;42.660;23.316;2023-05-20T05:57:51;94814.56;;;26.36;51.73
6090;BME280;3073;42.660;23.316;2023-05-20T06:00:19;94815.66;;;27.23;50.11
6090;BME280;3073;42.660;23.316;2023-05-20T06:02:46;94817.81;;;26.93;49.19
6090;BME280;3073;42.660;23.316;2023-05-20T06:05:13;94820.09;;;27.47;48.34
6090;BME280;3073;42.660;23.316;2023-05-20T06:07:40;94815.69;;;29.07;45.83
6090;BME280;3073;42.660;23.316;2023-05-20T06:10:08;94815.97;;;29.60;44.52
6090;BME280;3073;42.660;23.316;2023-05-20T06:12:35;94814.34;;;30.17;43.38
6090;BME280;3073;42.660;23.316;2023-05-20T06:15:03;94813.22;;;30.67;42.14
6090;BME280;3073;42.660;23.316;2023-05-20T06:17:32;94805.22;;;31.12;42.31
6090;BME280;3073;42.660;23.316;2023-05-20T06:20:09;94808.94;;;31.74;40.73
6090;BME280;3073;42.660;23.316;2023-05-20T06:22:36;94808.13;;;32.07;40.01
6090;BME280;3073;42.660;23.316;2023-05-20T06:25:03;94810.38;;;32.56;39.15
6090;BME280;3073;42.660;23.316;2023-05-20T06:27:30;94808.34;;;30.95;39.73
6090;BME280;3073;42.660;23.316;2023-05-20T06:30:00;94802.78;;;32.47;38.58
6090;BME280;3073;42.660;23.316;2023-05-20T06:32:27;94808.28;;;31.84;38.65
6090;BME280;3073;42.660;23.316;2023-05-20T06:34:58;94796.47;;;30.52;39.30
6090;BME280;3073;42.660;23.316;2023-05-20T06:37:25;94788.69;;;31.15;38.98
6090;BME280;3073;42.660;23.316;2023-05-20T06:39:52;94786.09;;;32.40;37.98
6090;BME280;3073;42.660;23.316;2023-05-20T06:42:24;94789.34;;;33.46;36.29
6090;BME280;3073;42.660;23.316;2023-05-20T06:44:51;94785.97;;;33.56;35.59
6090;BME280;3073;42.660;23.316;2023-05-20T06:47:18;94779.38;;;31.58;37.61
6090;BME280;3073;42.660;23.316;2023-05-20T06:49:44;94781.16;;;32.96;36.21
6090;BME280;3073;42.660;23.316;2023-05-20T06:52:13;94773.72;;;32.03;36.75
6090;BME280;3073;42.660;23.316;2023-05-20T06:54:48;94783.72;;;30.31;38.68
6090;BME280;3073;42.660;23.316;2023-05-20T06:57:15;94784.03;;;30.49;37.47
6090;BME280;3073;42.660;23.316;2023-05-20T06:59:41;94784.97;;;30.93;37.82
6090;BME280;3073;42.660;23.316;2023-05-20T07:02:09;94787.09;;;31.10;35.81
6090;BME280;3073;42.660;23.316;2023-05-20T07:04:36;94793.53;;;29.66;37.66
6090;BME280;3073;42.660;23.316;2023-05-20T07:07:03;94792.28;;;31.03;37.66
6090;BME280;3073;42.660;23.316;2023-05-20T07:09:31;94791.22;;;31.41;36.81
6090;BME280;3073;42.660;23.316;2023-05-20T07:11:58;94785.03;;;31.60;35.37
6090;BME280;3073;42.660;23.316;2023-05-20T07:14:25;94787.84;;;32.69;34.46
6090;BME280;3073;42.660;23.316;2023-05-20T07:16:54;94777.84;;;31.57;34.82
6090;BME280;3073;42.660;23.316;2023-05-20T07:19:20;94783.78;;;31.17;35.46
6090;BME280;3073;42.660;23.316;2023-05-20T07:21:47;94784.09;;;32.19;34.37
6090;BME280;3073;42.660;23.316;2023-05-20T07:24:22;94783.13;;;32.45;34.66
6090;BME280;3073;42.660;23.316;2023-05-20T07:26:52;94782.09;;;32.05;34.42
6090;BME280;3073;42.660;23.316;2023-05-20T07:29:21;94777.09;;;29.11;37.29
6090;BME280;3073;42.660;23.316;2023-05-20T07:31:48;94771.19;;;30.47;36.47
6090;BME280;3073;42.660;23.316;2023-05-20T07:34:15;94780.31;;;30.53;35.53
6090;BME280;3073;42.660;23.316;2023-05-20T07:36:44;94776.50;;;30.51;36.01
6090;BME280;3073;42.660;23.316;2023-05-20T07:39:11;94781.91;;;31.88;34.83
6090;BME280;3073;42.660;23.316;2023-05-20T07:41:38;94778.47;;;32.24;34.77
6090;BME280;3073;42.660;23.316;2023-05-20T07:44:09;94784.25;;;32.00;33.82
6090;BME280;3073;42.660;23.316;2023-05-20T07:46:38;94784.78;;;31.05;34.75
6090;BME280;3073;42.660;23.316;2023-05-20T07:49:06;94788.63;;;32.22;34.24
6090;BME280;3073;42.660;23.316;2023-05-20T07:51:33;94793.59;;;33.86;32.93
6090;BME280;3073;42.660;23.316;2023-05-20T07:54:00;94779.22;;;34.47;32.21
6090;BME280;3073;42.660;23.316;2023-05-20T07:56:27;94776.09;;;35.01;31.11
6090;BME280;3073;42.660;23.316;2023-05-20T07:58:59;94778.47;;;34.07;30.89
6090;BME280;3073;42.660;23.316;2023-05-20T08:01:43;94781.09;;;33.93;32.08
6090;BME280;3073;42.660;23.316;2023-05-20T08:04:10;94780.75;;;34.23;31.36
6090;BME280;3073;42.660;23.316;2023-05-20T08:06:37;94773.13;;;34.57;31.22
6090;BME280;3073;42.660;23.316;2023-05-20T08:09:04;94774.84;;;35.96;31.23
6090;BME280;3073;42.660;23.316;2023-05-20T08:11:34;94768.63;;;34.43;30.91
6090;BME280;3073;42.660;23.316;2023-05-20T08:14:01;94773.34;;;35.95;29.93
6090;BME280;3073;42.660;23.316;2023-05-20T08:16:35;94760.66;;;33.94;30.37
6090;BME280;3073;42.660;23.316;2023-05-20T08:19:06;94766.00;;;34.19;31.01
6090;BME280;3073;42.660;23.316;2023-05-20T08:21:33;94764.59;;;35.33;30.21
6090;BME280;3073;42.660;23.316;2023-05-20T08:24:00;94770.22;;;36.07;30.25
6090;BME280;3073;42.660;23.316;2023-05-20T08:26:27;94767.81;;;34.85;30.28
6090;BME280;3073;42.660;23.316;2023-05-20T08:28:54;94761.78;;;35.57;30.17
6090;BME280;3073;42.660;23.316;2023-05-20T08:31:22;94769.78;;;36.94;29.09
6090;BME280;3073;42.660;23.316;2023-05-20T08:33:49;94765.22;;;36.61;28.16
6090;BME280;3073;42.660;23.316;2023-05-20T08:36:18;94761.66;;;36.34;30.09
6090;BME280;3073;42.660;23.316;2023-05-20T08:38:45;94755.72;;;34.67;30.95
6090;BME280;3073;42.660;23.316;2023-05-20T08:41:12;94757.28;;;34.07;30.24
6090;BME280;3073;42.660;23.316;2023-05-20T08:43:39;94756.50;;;34.03;31.78
6090;BME280;3073;42.660;23.316;2023-05-20T08:46:06;94755.03;;;32.81;32.00
6090;BME280;3073;42.660;23.316;2023-05-20T08:48:34;94757.56;;;33.49;32.42
6090;BME280;3073;42.660;23.316;2023-05-20T08:51:02;94755.75;;;33.99;31.28
6090;BME280;3073;42.660;23.316;2023-05-20T08:53:30;94762.47;;;33.47;32.40
6090;BME280;3073;42.660;23.316;2023-05-20T08:56:01;94770.13;;;33.91;30.64
6090;BME280;3073;42.660;23.316;2023-05-20T08:58:30;94769.78;;;34.35;30.75
6090;BME280;3073;42.660;23.316;2023-05-20T09:01:01;94757.28;;;34.25;31.96
6090;BME280;3073;42.660;23.316;2023-05-20T09:03:29;94759.63;;;35.38;30.25
6090;BME280;3073;42.660;23.316;2023-05-20T09:06:02;94753.34;;;35.00;30.78
6090;BME280;3073;42.660;23.316;2023-05-20T09:08:32;94752.91;;;35.89;29.90
6090;BME280;3073;42.660;23.316;2023-05-20T09:11:00;94742.59;;;35.94;29.89
6090;BME280;3073;42.660;23.316;2023-05-20T09:13:29;94747.22;;;36.35;29.88
6090;BME280;3073;42.660;23.316;2023-05-20T09:15:58;94748.22;;;36.00;30.09
6090;BME280;3073;42.660;23.316;2023-05-20T09:18:26;94743.84;;;37.05;29.21
6090;BME280;3073;42.660;23.316;2023-05-20T09:20:55;94737.56;;;36.10;29.04
6090;BME280;3073;42.660;23.316;2023-05-20T09:23:22;94743.53;;;36.96;29.62
6090;BME280;3073;42.660;23.316;2023-05-20T09:25:51;94733.13;;;35.90;29.08
6090;BME280;3073;42.660;23.316;2023-05-20T09:28:19;94720.97;;;34.26;31.41
6090;BME280;3073;42.660;23.316;2023-05-20T09:30:55;94727.41;;;35.95;30.12
6090;BME280;3073;42.660;23.316;2023-05-20T09:33:26;94731.84;;;37.21;29.86
6090;BME280;3073;42.660;23.316;2023-05-20T09:36:01;94731.34;;;36.24;29.18
6090;BME280;3073;42.660;23.316;2023-05-20T09:38:30;94727.91;;;35.83;29.85
6090;BME280;3073;42.660;23.316;2023-05-20T09:41:07;94718.88;;;36.58;29.77
6090;BME280;3073;42.660;23.316;2023-05-20T09:43:34;94719.75;;;33.49;31.87
6090;BME280;3073;42.660;23.316;2023-05-20T09:46:02;94724.72;;;33.61;32.12
6090;BME280;3073;42.660;23.316;2023-05-20T09:48:29;94724.72;;;34.32;32.13
6090;BME280;3073;42.660;23.316;2023-05-20T09:50:57;94712.38;;;32.89;32.74
6090;BME280;3073;42.660;23.316;2023-05-20T09:53:26;94709.94;;;33.42;32.28
6090;BME280;3073;42.660;23.316;2023-05-20T09:55:53;94710.59;;;34.77;32.38
6090;BME280;3073;42.660;23.316;2023-05-20T09:58:22;94714.56;;;36.72;29.87
6090;BME280;3073;42.660;23.316;2023-05-20T10:00:49;94711.75;;;36.86;28.88
6090;BME280;3073;42.660;23.316;2023-05-20T10:03:20;94707.81;;;36.94;29.15
6090;BME280;3073;42.660;23.316;2023-05-20T10:05:55;94702.25;;;37.15;29.27
6090;BME280;3073;42.660;23.316;2023-05-20T10:08:42;94691.78;;;36.30;29.29
6090;BME280;3073;42.660;23.316;2023-05-20T10:11:18;94686.03;;;36.38;29.63
6090;BME280;3073;42.660;23.316;2023-05-20T10:14:13;94693.91;;;36.04;30.06
6090;BME280;3073;42.660;23.316;2023-05-20T10:16:50;94687.25;;;36.98;29.52
6090;BME280;3073;42.660;23.316;2023-05-20T10:19:27;94672.88;;;36.92;27.89
6090;BME280;3073;42.660;23.316;2023-05-20T10:21:59;94674.50;;;37.43;28.39
6090;BME280;3073;42.660;23.316;2023-05-20T10:24:30;94667.78;;;36.74;28.61
6090;BME280;3073;42.660;23.316;2023-05-20T10:26:58;94674.50;;;37.16;28.99
6090;BME280;3073;42.660;23.316;2023-05-20T10:29:28;94670.53;;;36.30;29.11
6090;BME280;3073;42.660;23.316;2023-05-20T10:31:55;94671.97;;;37.05;28.02
6090;BME280;3073;42.660;23.316;2023-05-20T10:34:22;94668.16;;;36.39;28.57
6090;BME280;3073;42.660;23.316;2023-05-20T10:36:59;94662.81;;;35.53;28.18
6090;BME280;3073;42.660;23.316;2023-05-20T10:39:27;94666.81;;;35.24;27.28
6090;BME280;3073;42.660;23.316;2023-05-20T10:42:05;94653.16;;;35.77;27.65
6090;BME280;3073;42.660;23.316;2023-05-20T10:44:43;94645.28;;;33.68;29.05
6090;BME280;3073;42.660;23.316;2023-05-20T10:47:12;94641.31;;;32.74;29.79
6090;BME280;3073;42.660;23.316;2023-05-20T10:49:42;94627.88;;;34.02;30.24
6090;BME280;3073;42.660;23.316;2023-05-20T10:52:09;94629.75;;;33.21;29.75
6090;BME280;3073;42.660;23.316;2023-05-20T10:54:42;94630.91;;;33.76;30.72
6090;BME280;3073;42.660;23.316;2023-05-20T10:57:10;94636.59;;;33.85;29.08
6090;BME280;3073;42.660;23.316;2023-05-20T10:59:37;94624.00;;;34.39;29.36
6090;BME280;3073;42.660;23.316;2023-05-20T11:02:06;94623.31;;;33.43;30.11
6090;BME280;3073;42.660;23.316;2023-05-20T11:04:36;94635.31;;;32.80;31.07
6090;BME280;3073;42.660;23.316;2023-05-20T11:07:04;94628.34;;;34.88;29.77
6090;BME280;3073;42.660;23.316;2023-05-20T11:09:31;94636.09;;;32.88;29.76
6090;BME280;3073;42.660;23.316;2023-05-20T11:11:58;94627.09;;;33.13;30.76
6090;BME280;3073;42.660;23.316;2023-05-20T11:14:33;94623.28;;;34.28;29.14
6090;BME280;3073;42.660;23.316;2023-05-20T11:17:00;94616.19;;;34.90;28.52
6090;BME280;3073;42.660;23.316;2023-05-20T11:19:28;94611.72;;;35.87;27.19
6090;BME280;3073;42.660;23.316;2023-05-20T11:21:55;94604.34;;;36.01;28.16
6090;BME280;3073;42.660;23.316;2023-05-20T11:24:23;94618.97;;;36.20;27.98
6090;BME280;3073;42.660;23.316;2023-05-20T11:26:52;94617.28;;;33.99;30.33
6090;BME280;3073;42.660;23.316;2023-05-20T11:29:19;94602.53;;;33.87;30.68
6090;BME280;3073;42.660;23.316;2023-05-20T11:31:48;94597.06;;;34.51;31.03
6090;BME280;3073;42.660;23.316;2023-05-20T11:34:15;94590.81;;;33.10;32.92
6090;BME280;3073;42.660;23.316;2023-05-20T11:36:44;94592.03;;;32.27;32.47
6090;BME280;3073;42.660;23.316;2023-05-20T11:39:11;94588.81;;;31.86;32.98
6090;BME280;3073;42.660;23.316;2023-05-20T11:41:40;94582.38;;;31.32;34.50
6090;BME280;3073;42.660;23.316;2023-05-20T11:44:09;94583.09;;;30.52;33.99
6090;BME280;3073;42.660;23.316;2023-05-20T11:46:40;94582.69;;;31.24;34.47
6090;BME280;3073;42.660;23.316;2023-05-20T11:49:07;94584.19;;;31.72;34.00
6090;BME280;3073;42.660;23.316;2023-05-20T11:51:34;94579.25;;;31.20;33.38
6090;BME280;3073;42.660;23.316;2023-05-20T11:54:03;94569.81;;;30.11;34.79
6090;BME280;3073;42.660;23.316;2023-05-20T11:56:32;94577.50;;;30.94;34.41
6090;BME280;3073;42.660;23.316;2023-05-20T11:59:01;94563.44;;;29.86;35.20
6090;BME280;3073;42.660;23.316;2023-05-20T12:01:30;94563.72;;;30.71;34.41
6090;BME280;3073;42.660;23.316;2023-05-20T12:03:58;94570.50;;;30.72;34.67
6090;BME280;3073;42.660;23.316;2023-05-20T12:06:25;94557.88;;;30.21;34.53
6090;BME280;3073;42.660;23.316;2023-05-20T12:08:51;94570.56;;;30.42;34.86
6090;BME280;3073;42.660;23.316;2023-05-20T12:11:19;94563.91;;;30.22;34.92
6090;BME280;3073;42.660;23.316;2023-05-20T12:13:47;94554.31;;;29.80;36.75
6090;BME280;3073;42.660;23.316;2023-05-20T12:16:14;94564.66;;;29.66;36.32
6090;BME280;3073;42.660;23.316;2023-05-20T12:18:41;94563.63;;;29.02;37.14
6090;BME280;3073;42.660;23.316;2023-05-20T12:21:08;94569.19;;;29.69;36.41
6090;BME280;3073;42.660;23.316;2023-05-20T12:23:35;94568.50;;;29.23;37.82
6090;BME280;3073;42.660;23.316;2023-05-20T12:26:01;94576.00;;;28.79;38.08
6090;BME280;3073;42.660;23.316;2023-05-20T12:28:31;94586.81;;;28.36;38.39
6090;BME280;3073;42.660;23.316;2023-05-20T12:30:58;94576.69;;;27.33;39.48
6090;BME280;3073;42.660;23.316;2023-05-20T12:33:26;94608.06;;;27.14;40.25
6090;BME280;3073;42.660;23.316;2023-05-20T12:35:53;94606.59;;;25.21;41.60
6090;BME280;3073;42.660;23.316;2023-05-20T12:38:20;94607.84;;;25.72;41.34
6090;BME280;3073;42.660;23.316;2023-05-20T12:40:46;94612.25;;;24.45;44.54
6090;BME280;3073;42.660;23.316;2023-05-20T12:43:13;94604.59;;;25.50;42.97
6090;BME280;3073;42.660;23.316;2023-05-20T12:45:42;94614.31;;;25.17;43.33
6090;BME280;3073;42.660;23.316;2023-05-20T12:48:08;94628.75;;;25.02;43.40
6090;BME280;3073;42.660;23.316;2023-05-20T12:50:35;94621.34;;;24.92;44.21
6090;BME280;3073;42.660;23.316;2023-05-20T12:53:02;94608.97;;;25.14;43.59
6090;BME280;3073;42.660;23.316;2023-05-20T12:55:29;94610.31;;;25.44;43.71
6090;BME280;3073;42.660;23.316;2023-05-20T12:57:56;94609.56;;;25.80;42.76
6090;BME280;3073;42.660;23.316;2023-05-20T13:00:22;94605.41;;;26.03;42.00
6090;BME280;3073;42.660;23.316;2023-05-20T13:02:51;94608.19;;;26.22;41.83
6090;BME280;3073;42.660;23.316;2023-05-20T13:05:18;94606.38;;;27.53;40.12
6090;BME280;3073;42.660;23.316;2023-05-20T13:07:48;94599.34;;;27.26;39.76
6090;BME280;3073;42.660;23.316;2023-05-20T13:10:15;94593.78;;;27.58;39.65
6090;BME280;3073;42.660;23.316;2023-05-20T13:12:43;94579.25;;;28.92;37.73
6090;BME280;3073;42.660;23.316;2023-05-20T13:15:10;94578.16;;;29.64;36.80